This is the latest recevied weather packets stored in our database for station/object WX7FGZ-7. If no packets are shown the sender has not sent any weather packets the latest 10 day(s).
| Time | Temp. | Humidity | Pressure | Rain* | Wind** | Luminosity | Snow |
|---|---|---|---|---|---|---|---|
| 1777832659 | 24.44° C | 25% | 1019.2 hPa | 0 mm | - | - | - |
| 1777832628 | 24.44° C | 25% | 1019.2 hPa | 0 mm | - | - | - |
| 1777832554 | 23.89° C | 27% | 1019.5 hPa | 0 mm | - | - | - |
| 1777832346 | 24.44° C | 25% | 1019.2 hPa | 0 mm | - | - | - |
| 1777831750 | 23.89° C | 27% | 1019.5 hPa | 0 mm | - | - | - |
| 1777830863 | 23.33° C | 28% | 1019.9 hPa | 0 mm | - | - | - |
| 1777830743 | 23.33° C | 28% | 1019.9 hPa | 0 mm | - | - | - |
| 1777830733 | 22.78° C | 28% | 1019.9 hPa | 0 mm | - | - | - |
| 1777830644 | 23.33° C | 28% | 1019.9 hPa | 0 mm | - | - | - |
| 1777830625 | 22.78° C | 28% | 1019.9 hPa | 0 mm | - | - | - |
| 1777830358 | 22.78° C | 28% | 1019.9 hPa | 0 mm | - | - | - |
| 1777829453 | 22.78° C | 29% | 1020.2 hPa | 0 mm | - | - | - |
| 1777828781 | 21.67° C | 30% | 1020.6 hPa | 0 mm | - | - | - |
| 1777828567 | 21.67° C | 30% | 1020.6 hPa | 0 mm | - | - | - |
| 1777828241 | 21.67° C | 30% | 1020.6 hPa | 0 mm | - | - | - |
| 1777828224 | 21.67° C | 29% | 1020.7 hPa | 0 mm | - | - | - |
| 1777828010 | 21.67° C | 29% | 1020.7 hPa | 0 mm | - | - | - |
| 1777828001 | 21.67° C | 29% | 1020.7 hPa | 0 mm | - | - | - |
| 1777827939 | 21.67° C | 29% | 1020.7 hPa | 0 mm | - | - | - |
| 1777827851 | 21.67° C | 29% | 1020.7 hPa | 0 mm | - | - | - |
| 1777827658 | 21.67° C | 29% | 1020.7 hPa | 0 mm | - | - | - |
| 1777827597 | 21.67° C | 30% | 1020.8 hPa | 0 mm | - | - | - |
| 1777827441 | 21.67° C | 30% | 1020.8 hPa | 0 mm | - | - | - |
| 1777827339 | 21.67° C | 30% | 1020.8 hPa | 0 mm | - | - | - |
| 1777827041 | 21.67° C | 29% | 1020.7 hPa | 0 mm | - | - | - |
* Rain latest hour (hover to see other rain measurements)
** Current wind speed in m/s (hover to see current wind gust speed)